John G — WDF2677 — position and weather

sailwx.info

Track history (hours):
 
Tides and Currents Weather Stations Pressure Air Temp Water Temp Dewpoint Dewpoint Depression Visibility Wind Speed Wind Dir Waves Ship Positions

John G

Owner: Marquette Transportation Company Offshore LLC, Jefferson, LA. More information available from US FCC via Universal Licensing System and Coast Guard Vessel Documentation Center.

Last reported at 2016-May-22 04:08 UTC. Time now 2016-May-28 07:55 UTC.
Position N 29°59' W 090°24'.

Length 24 m.

Type: Towing. MMSI: 367009680.

Date/timePositionNaut miles runAvg speedWind from/ knotsBaromVisibWave heightAir tempDewpointWater temp
2016-May-22 04:08N 29°59' W 090°24'0 0.0
2016-May-22 03:27N 29°59' W 090°24'0 0.0
2016-May-22 02:33N 29°59' W 090°24'0 0.0
2016-May-22 01:34N 29°59' W 090°24'  
2016-May-18 02:33N 29°56' W 090°11'2 2.4
2016-May-18 01:33N 29°57' W 090°08'3 2.8
2016-May-18 00:33N 29°55' W 090°06'3 3.0
2016-May-17 23:34N 29°57' W 090°03'3 2.5
2016-May-17 22:33N 29°57' W 090°01'0 0.2
2016-May-17 21:34N 29°56' W 090°00'0 0.2
2016-May-17 20:34N 29°56' W 090°00'0 0.0
2016-May-17 19:34N 29°56' W 090°00'0 0.0
2016-May-17 18:34N 29°56' W 090°00'0 0.0
2016-May-17 17:34N 29°56' W 090°00'0 0.0
2016-May-17 16:34N 29°56' W 090°00'0 0.0
2016-May-17 15:34N 29°56' W 090°00'0 0.0
2016-May-17 14:34N 29°56' W 090°00'0 0.0
2016-May-17 13:34N 29°56' W 090°00'0 0.0
2016-May-17 12:34N 29°56' W 090°00'0 0.0
2016-May-17 11:34N 29°56' W 090°00'0 0.0
2016-May-17 10:34N 29°56' W 090°00'0 0.0
2016-May-17 09:34N 29°56' W 090°00'0 0.3
2016-May-17 08:33N 29°57' W 090°00'5 5.5
2016-May-17 07:34N 29°55' W 090°06'5 4.6
2016-May-17 06:32N 29°56' W 090°12'1 0.0
2016-May-15 17:07N 29°55' W 090°12'3 4.5
2016-May-15 16:33N 29°57' W 090°10'1 0.6
2016-May-15 15:33N 29°57' W 090°09'0 0.0
2016-May-15 14:33N 29°57' W 090°09'0 0.0
2016-May-15 13:33N 29°57' W 090°09'0 0.0
2016-May-15 12:33N 29°57' W 090°09'0 0.0
2016-May-15 11:33N 29°57' W 090°09'0 0.0
2016-May-15 10:33N 29°57' W 090°09'0 0.0
2016-May-15 09:33N 29°57' W 090°09'0 0.0
2016-May-15 08:33N 29°57' W 090°09'0 0.0
2016-May-15 07:33N 29°57' W 090°09'0 0.0
2016-May-15 06:33N 29°57' W 090°09'0 0.0
2016-May-15 05:33N 29°57' W 090°09'0 0.0
2016-May-15 04:33N 29°57' W 090°09'0 0.0
2016-May-15 03:33N 29°57' W 090°09'0 0.0
2016-May-15 02:33N 29°57' W 090°09'0 0.0
2016-May-15 01:33N 29°57' W 090°09'0 0.0
2016-May-15 00:33N 29°57' W 090°09'0 0.0
2016-May-14 23:33N 29°57' W 090°09'0 0.0
2016-May-14 22:33N 29°57' W 090°09'0 0.0
2016-May-14 21:34N 29°57' W 090°09'0 0.0
2016-May-14 20:33N 29°57' W 090°09'0 0.0
2016-May-14 19:33N 29°57' W 090°09'0 0.0
2016-May-14 18:33N 29°57' W 090°09'0 0.0
2016-May-14 17:33N 29°57' W 090°09'0 0.0
2016-May-14 16:33N 29°57' W 090°09'0 0.0
2016-May-14 15:33N 29°57' W 090°09'0 0.0
2016-May-14 14:33N 29°57' W 090°09'0 0.0
2016-May-14 13:33N 29°57' W 090°09'0 0.0
2016-May-14 12:33N 29°57' W 090°09'0 0.0
2016-May-14 11:33N 29°57' W 090°09'0 0.0
2016-May-14 10:33N 29°57' W 090°09'0 0.0
2016-May-14 09:33N 29°57' W 090°09'0 0.0
2016-May-14 08:33N 29°57' W 090°09'0 0.0
2016-May-14 07:33N 29°57' W 090°09'0 0.0
2016-May-14 06:33N 29°57' W 090°09'0 0.0
2016-May-14 05:33N 29°57' W 090°09'0 0.0
2016-May-14 04:33N 29°57' W 090°09'0 0.0
2016-May-14 03:33N 29°57' W 090°09'0 0.0
2016-May-14 02:33N 29°57' W 090°09'0 0.0
2016-May-14 01:33N 29°57' W 090°09'0 0.0
2016-May-14 00:33N 29°57' W 090°09'0 0.0
2016-May-13 23:33N 29°57' W 090°09'0 0.0
2016-May-13 22:33N 29°57' W 090°09'0 0.0
2016-May-13 21:33N 29°57' W 090°09'0 0.0
2016-May-13 20:33N 29°57' W 090°09'0 0.0
2016-May-13 19:33N 29°57' W 090°09'0 0.0
2016-May-13 18:33N 29°57' W 090°09'0 0.0
2016-May-13 17:33N 29°57' W 090°09'0 0.0
2016-May-13 16:33N 29°57' W 090°09'0 0.0
2016-May-13 15:33N 29°57' W 090°09'0 0.1
2016-May-13 14:33N 29°57' W 090°09'  
Track history (hours):
 
Tides and Currents Weather Stations Pressure Air Temp Water Temp Dewpoint Dewpoint Depression Visibility Wind Speed Wind Dir Waves Ship Positions

John G

Owner: Marquette Transportation Company Offshore LLC, Jefferson, LA. More information available from US FCC via Universal Licensing System and Coast Guard Vessel Documentation Center.

Last reported at 2016-May-22 04:08 UTC. Time now 2016-May-28 07:55 UTC.
Position N 29°59' W 090°24'.

Length 24 m.

Type: Towing. MMSI: 367009680.

Date/timePositionNaut miles runAvg speedWind from/ knotsBaromVisibWave heightAir tempDewpointWater temp
2016-May-22 04:08N 29°59' W 090°24'0 0.0
2016-May-22 03:27N 29°59' W 090°24'0 0.0
2016-May-22 02:33N 29°59' W 090°24'0 0.0
2016-May-22 01:34N 29°59' W 090°24'  
2016-May-18 02:33N 29°56' W 090°11'2 2.4
2016-May-18 01:33N 29°57' W 090°08'3 2.8
2016-May-18 00:33N 29°55' W 090°06'3 3.0
2016-May-17 23:34N 29°57' W 090°03'3 2.5
2016-May-17 22:33N 29°57' W 090°01'0 0.2
2016-May-17 21:34N 29°56' W 090°00'0 0.2
2016-May-17 20:34N 29°56' W 090°00'0 0.0
2016-May-17 19:34N 29°56' W 090°00'0 0.0
2016-May-17 18:34N 29°56' W 090°00'0 0.0
2016-May-17 17:34N 29°56' W 090°00'0 0.0
2016-May-17 16:34N 29°56' W 090°00'0 0.0
2016-May-17 15:34N 29°56' W 090°00'0 0.0
2016-May-17 14:34N 29°56' W 090°00'0 0.0
2016-May-17 13:34N 29°56' W 090°00'0 0.0
2016-May-17 12:34N 29°56' W 090°00'0 0.0
2016-May-17 11:34N 29°56' W 090°00'0 0.0
2016-May-17 10:34N 29°56' W 090°00'0 0.0
2016-May-17 09:34N 29°56' W 090°00'0 0.3
2016-May-17 08:33N 29°57' W 090°00'5 5.5
2016-May-17 07:34N 29°55' W 090°06'5 4.6
2016-May-17 06:32N 29°56' W 090°12'1 0.0
2016-May-15 17:07N 29°55' W 090°12'3 4.5
2016-May-15 16:33N 29°57' W 090°10'1 0.6
2016-May-15 15:33N 29°57' W 090°09'0 0.0
2016-May-15 14:33N 29°57' W 090°09'0 0.0
2016-May-15 13:33N 29°57' W 090°09'0 0.0
2016-May-15 12:33N 29°57' W 090°09'0 0.0
2016-May-15 11:33N 29°57' W 090°09'0 0.0
2016-May-15 10:33N 29°57' W 090°09'0 0.0
2016-May-15 09:33N 29°57' W 090°09'0 0.0
2016-May-15 08:33N 29°57' W 090°09'0 0.0
2016-May-15 07:33N 29°57' W 090°09'0 0.0
2016-May-15 06:33N 29°57' W 090°09'0 0.0
2016-May-15 05:33N 29°57' W 090°09'0 0.0
2016-May-15 04:33N 29°57' W 090°09'0 0.0
2016-May-15 03:33N 29°57' W 090°09'0 0.0
2016-May-15 02:33N 29°57' W 090°09'0 0.0
2016-May-15 01:33N 29°57' W 090°09'0 0.0
2016-May-15 00:33N 29°57' W 090°09'0 0.0
2016-May-14 23:33N 29°57' W 090°09'0 0.0
2016-May-14 22:33N 29°57' W 090°09'0 0.0
2016-May-14 21:34N 29°57' W 090°09'0 0.0
2016-May-14 20:33N 29°57' W 090°09'0 0.0
2016-May-14 19:33N 29°57' W 090°09'0 0.0
2016-May-14 18:33N 29°57' W 090°09'0 0.0
2016-May-14 17:33N 29°57' W 090°09'0 0.0
2016-May-14 16:33N 29°57' W 090°09'0 0.0
2016-May-14 15:33N 29°57' W 090°09'0 0.0
2016-May-14 14:33N 29°57' W 090°09'0 0.0
2016-May-14 13:33N 29°57' W 090°09'0 0.0
2016-May-14 12:33N 29°57' W 090°09'0 0.0
2016-May-14 11:33N 29°57' W 090°09'0 0.0
2016-May-14 10:33N 29°57' W 090°09'0 0.0
2016-May-14 09:33N 29°57' W 090°09'0 0.0
2016-May-14 08:33N 29°57' W 090°09'0 0.0
2016-May-14 07:33N 29°57' W 090°09'0 0.0
2016-May-14 06:33N 29°57' W 090°09'0 0.0
2016-May-14 05:33N 29°57' W 090°09'0 0.0
2016-May-14 04:33N 29°57' W 090°09'0 0.0
2016-May-14 03:33N 29°57' W 090°09'0 0.0
2016-May-14 02:33N 29°57' W 090°09'0 0.0
2016-May-14 01:33N 29°57' W 090°09'0 0.0
2016-May-14 00:33N 29°57' W 090°09'0 0.0
2016-May-13 23:33N 29°57' W 090°09'0 0.0
2016-May-13 22:33N 29°57' W 090°09'0 0.0
2016-May-13 21:33N 29°57' W 090°09'0 0.0
2016-May-13 20:33N 29°57' W 090°09'0 0.0
2016-May-13 19:33N 29°57' W 090°09'0 0.0
2016-May-13 18:33N 29°57' W 090°09'0 0.0
2016-May-13 17:33N 29°57' W 090°09'0 0.0
2016-May-13 16:33N 29°57' W 090°09'0 0.0
2016-May-13 15:33N 29°57' W 090°09'0 0.1
2016-May-13 14:33N 29°57' W 090°09'  

Dump ship's entire track history